Time;durP1;ratioP1;P1;durP2;ratioP2;P2;SDS_P1;SDS_P2;PMS_P1;PMS_P2;Temp;Humidity;BMP_temperature;BMP_pressure;BME280_temperature;BME280_humidity;BME280_pressure;Samples;Min_cycle;Max_cycle;Signal;HPM_P1;HPM_P2
2022/08/23 00:01:13;;;;;;;2.70;2.50;;;27.30;40.20;;;;;;4941986;28;20521;-48
2022/08/23 00:03:39;;;;;;;3.17;2.83;;;27.30;39.80;;;;;;4939706;29;20454;-45
2022/08/23 00:06:06;;;;;;;4.63;2.50;;;27.30;40.20;;;;;;4944393;28;20960;-47
2022/08/23 00:08:32;;;;;;;3.00;2.73;;;27.20;40.30;;;;;;4946015;28;20526;-45
2022/08/23 00:10:58;;;;;;;3.43;3.13;;;27.10;41.20;;;;;;4943759;29;20451;-47
2022/08/23 00:13:24;;;;;;;4.60;3.33;;;27.10;41.20;;;;;;4945537;28;20479;-47
2022/08/23 00:15:50;;;;;;;3.43;3.13;;;27.10;41.10;;;;;;4948568;28;20211;-49
2022/08/23 00:18:17;;;;;;;3.27;2.97;;;27.10;41.00;;;;;;4940719;28;20435;-49
2022/08/23 00:20:43;;;;;;;3.40;2.67;;;27.00;41.20;;;;;;4941654;28;20294;-48
2022/08/23 00:23:09;;;;;;;3.30;2.77;;;26.90;41.60;;;;;;4947950;28;21038;-48
2022/08/23 00:25:34;;;;;;;3.60;3.00;;;26.90;41.90;;;;;;4951429;29;20523;-45
2022/08/23 00:28:00;;;;;;;3.70;2.93;;;26.90;41.80;;;;;;4948871;28;20307;-45
2022/08/23 00:30:26;;;;;;;2.37;2.23;;;26.90;41.50;;;;;;4949107;28;20283;-46
2022/08/23 00:32:52;;;;;;;2.70;2.50;;;26.90;41.90;;;;;;4941372;28;21017;-45
2022/08/23 00:35:19;;;;;;;3.00;2.80;;;26.90;41.70;;;;;;4944520;28;20192;-49
2022/08/23 00:37:45;;;;;;;3.20;2.87;;;26.80;41.60;;;;;;4945385;29;20203;-47
2022/08/23 00:40:13;;;;;;;3.03;2.70;;;26.90;41.90;;;;;;4945301;28;20522;-46
2022/08/23 00:48:26;;;;;;;3.10;2.90;;;26.80;41.80;;;;;;4947100;28;21050;-45
2022/08/23 00:51:13;;;;;;;3.90;3.00;;;26.80;41.90;;;;;;4948470;28;20444;-46
2022/08/23 00:53:42;;;;;;;2.57;2.37;;;26.80;41.40;;;;;;4950228;28;20195;-45
2022/08/23 00:56:11;;;;;;;4.83;2.70;;;26.70;42.10;;;;;;4950042;28;20446;-45
2022/08/23 00:58:38;;;;;;;2.80;2.60;;;26.70;41.80;;;;;;4947346;28;20436;-45
2022/08/23 01:01:05;;;;;;;4.30;2.77;;;26.60;41.90;;;;;;4946002;28;20523;-47
2022/08/23 01:03:34;;;;;;;3.73;2.80;;;26.50;41.90;;;;;;4942420;28;20465;-45
2022/08/23 01:06:07;;;;;;;2.60;2.40;;;26.50;42.10;;;;;;4948792;28;20970;-46
2022/08/23 01:08:34;;;;;;;2.80;2.60;;;26.50;42.40;;;;;;4943691;28;20450;-44
2022/08/23 01:11:09;;;;;;;4.63;2.50;;;26.50;42.40;;;;;;4943607;28;20477;-48
2022/08/23 01:13:54;;;;;;;3.17;2.90;;;26.40;42.50;;;;;;4943296;28;20529;-47
2022/08/23 01:16:44;;;;;;;2.93;2.63;;;26.40;42.50;;;;;;4946596;28;20466;-45
2022/08/23 01:19:35;;;;;;;8.63;2.87;;;26.40;42.40;;;;;;4943585;28;20585;-45
2022/08/23 01:22:24;;;;;;;3.33;3.03;;;26.40;42.40;;;;;;4939851;28;20494;-48
2022/08/23 01:24:51;;;;;;;2.60;2.40;;;26.40;42.40;;;;;;4946338;28;20458;-45
2022/08/23 01:27:16;;;;;;;2.30;2.17;;;26.40;42.60;;;;;;4947099;28;20440;-47
2022/08/23 01:29:42;;;;;;;2.80;2.60;;;26.40;42.60;;;;;;4942580;28;20452;-44
2022/08/23 01:32:09;;;;;;;4.60;2.53;;;26.40;42.60;;;;;;4944501;28;20203;-45
2022/08/23 01:34:35;;;;;;;4.67;2.60;;;26.40;42.50;;;;;;4942137;29;20204;-50
2022/08/23 01:37:06;;;;;;;5.70;3.17;;;26.10;42.30;;;;;;4948083;28;20531;-45
2022/08/23 01:39:33;;;;;;;2.90;2.60;;;26.00;43.50;;;;;;4946231;28;20582;-48
2022/08/23 01:41:59;;;;;;;3.87;2.63;;;26.00;43.20;;;;;;4949618;28;20487;-45
2022/08/23 01:44:25;;;;;;;3.00;2.80;;;26.10;43.00;;;;;;4947774;28;20451;-45
2022/08/23 01:46:52;;;;;;;5.30;3.27;;;26.10;43.00;;;;;;4948709;28;20196;-48
2022/08/23 01:49:18;;;;;;;3.17;2.60;;;26.10;43.00;;;;;;4946722;28;20455;-45
2022/08/23 01:51:44;;;;;;;3.03;2.70;;;26.10;43.10;;;;;;4949965;28;20527;-45
2022/08/23 01:54:11;;;;;;;2.73;2.53;;;26.10;43.10;;;;;;4948331;28;20538;-45
2022/08/23 01:56:39;;;;;;;3.00;2.80;;;26.10;43.10;;;;;;4954519;29;20446;-45
2022/08/23 01:59:05;;;;;;;3.20;2.90;;;26.10;43.00;;;;;;4943324;28;20443;-48
2022/08/23 02:01:31;;;;;;;2.83;2.57;;;26.10;43.10;;;;;;4950566;29;20995;-45
2022/08/23 02:03:57;;;;;;;3.03;2.53;;;26.10;43.20;;;;;;4951722;28;20455;-46
2022/08/23 02:06:22;;;;;;;2.73;2.53;;;26.10;43.10;;;;;;4945427;28;20200;-46
2022/08/23 02:09:00;;;;;;;4.77;2.93;;;25.70;43.40;;;;;;4951903;28;20266;-46
2022/08/23 02:11:31;;;;;;;2.60;2.40;;;25.60;44.00;;;;;;4942796;28;20565;-44
2022/08/23 02:13:59;;;;;;;3.20;2.63;;;25.70;43.90;;;;;;4947338;28;21245;-45
2022/08/23 02:16:30;;;;;;;2.90;2.70;;;25.80;44.00;;;;;;4952548;29;20478;-45
2022/08/23 02:18:56;;;;;;;2.80;2.60;;;25.90;43.80;;;;;;4945495;28;20432;-45
2022/08/23 02:21:22;;;;;;;3.00;2.80;;;25.90;43.60;;;;;;4950470;28;20490;-48
2022/08/23 02:23:50;;;;;;;4.70;2.80;;;25.90;43.40;;;;;;4946404;28;20443;-45
2022/08/23 02:26:16;;;;;;;4.63;2.77;;;25.90;43.80;;;;;;4948865;28;20447;-45
2022/08/23 02:28:41;;;;;;;4.53;3.10;;;25.90;43.70;;;;;;4944892;28;20446;-44
2022/08/23 02:31:07;;;;;;;3.67;2.53;;;25.90;43.50;;;;;;4952230;28;20202;-45
2022/08/23 02:33:33;;;;;;;3.33;2.63;;;25.80;43.70;;;;;;4947844;28;20204;-45
2022/08/23 02:35:58;;;;;;;3.87;3.57;;;25.80;43.80;;;;;;4949528;28;20219;-45
2022/08/23 02:38:24;;;;;;;4.63;3.23;;;25.80;44.00;;;;;;4947360;28;20192;-49
2022/08/23 02:40:49;;;;;;;3.73;2.60;;;25.80;43.40;;;;;;4949184;28;20246;-46
2022/08/23 02:43:15;;;;;;;3.20;3.00;;;25.80;43.30;;;;;;4947214;28;20228;-45
2022/08/23 02:45:41;;;;;;;3.37;3.00;;;25.80;43.40;;;;;;4948479;28;20660;-45
2022/08/23 02:48:08;;;;;;;3.17;2.83;;;25.60;43.60;;;;;;4948627;28;20195;-45
2022/08/23 02:50:34;;;;;;;3.30;3.10;;;25.50;44.20;;;;;;4951075;28;20226;-46
2022/08/23 02:53:00;;;;;;;3.30;3.10;;;25.50;44.20;;;;;;4948444;28;20535;-46
2022/08/23 02:55:26;;;;;;;4.67;3.20;;;25.40;44.10;;;;;;4946871;28;21023;-46
2022/08/23 02:57:52;;;;;;;3.67;3.10;;;25.40;44.10;;;;;;4945696;28;20284;-48
2022/08/23 03:00:20;;;;;;;4.87;3.00;;;25.40;44.40;;;;;;4944525;28;20878;-46
2022/08/23 03:02:46;;;;;;;2.60;2.50;;;25.40;44.30;;;;;;4946240;28;20204;-45
2022/08/23 03:05:14;;;;;;;3.77;3.00;;;25.40;44.50;;;;;;4949467;28;20471;-45
2022/08/23 03:07:40;;;;;;;4.40;2.90;;;25.40;44.70;;;;;;4948378;28;20440;-45
2022/08/23 03:10:08;;;;;;;3.83;3.50;;;25.40;44.40;;;;;;4948748;28;20451;-45
2022/08/23 03:12:33;;;;;;;3.50;2.70;;;25.50;44.70;;;;;;4946469;28;20832;-48
2022/08/23 03:14:59;;;;;;;3.67;3.33;;;25.40;44.50;;;;;;4946173;28;20439;-45
2022/08/23 03:17:25;;;;;;;3.17;2.87;;;25.40;44.20;;;;;;4950820;28;21743;-45
2022/08/23 03:19:53;;;;;;;3.33;2.77;;;25.40;44.50;;;;;;4947748;28;20269;-46
2022/08/23 03:22:21;;;;;;;3.37;2.90;;;25.40;44.40;;;;;;4944937;28;20207;-46
2022/08/23 03:24:47;;;;;;;3.40;2.60;;;25.30;44.30;;;;;;4945849;28;20789;-47
2022/08/23 03:27:13;;;;;;;4.27;2.80;;;25.20;44.60;;;;;;4949361;28;20514;-45
2022/08/23 03:29:38;;;;;;;3.30;3.00;;;25.20;44.80;;;;;;4949725;28;20254;-46
2022/08/23 03:32:05;;;;;;;2.73;2.53;;;25.20;45.10;;;;;;4945187;28;20200;-47
2022/08/23 03:34:31;;;;;;;3.33;3.13;;;25.00;44.70;;;;;;4945855;28;20198;-46
2022/08/23 03:36:57;;;;;;;4.03;3.03;;;25.00;45.50;;;;;;4949919;28;20448;-46
2022/08/23 03:39:23;;;;;;;6.13;5.53;;;25.00;45.20;;;;;;4945769;28;20272;-49
2022/08/23 03:41:48;;;;;;;6.17;3.23;;;25.00;44.90;;;;;;4949570;28;20495;-47
2022/08/23 03:44:14;;;;;;;4.30;3.70;;;24.90;45.00;;;;;;4950240;28;20616;-46
2022/08/23 03:46:40;;;;;;;3.70;3.40;;;24.80;45.30;;;;;;4951904;28;20246;-46
2022/08/23 03:49:06;;;;;;;3.70;3.40;;;24.80;45.90;;;;;;4943813;28;20200;-47
2022/08/23 03:51:33;;;;;;;3.90;3.60;;;24.70;45.20;;;;;;4948521;28;20292;-48
2022/08/23 03:53:59;;;;;;;3.33;3.13;;;24.60;45.60;;;;;;4950699;28;20814;-48
2022/08/23 03:56:28;;;;;;;3.57;3.27;;;24.60;46.00;;;;;;4949703;28;20502;-46
2022/08/23 03:58:55;;;;;;;7.27;3.27;;;24.60;46.10;;;;;;4945933;28;20451;-46
2022/08/23 04:01:22;;;;;;;3.17;2.97;;;24.60;45.50;;;;;;4943893;28;20660;-47
2022/08/23 04:03:48;;;;;;;3.80;3.37;;;24.70;45.70;;;;;;4945025;28;20542;-48
2022/08/23 04:06:15;;;;;;;2.70;2.50;;;24.70;45.60;;;;;;4948178;28;20534;-49
2022/08/23 04:08:41;;;;;;;2.90;2.70;;;24.80;45.30;;;;;;4951220;28;20782;-46
2022/08/23 04:11:08;;;;;;;7.10;3.20;;;24.80;45.60;;;;;;4947909;28;20788;-45
2022/08/23 04:13:35;;;;;;;2.80;2.60;;;24.70;46.20;;;;;;4948582;28;20618;-49
2022/08/23 04:16:02;;;;;;;2.90;2.70;;;24.60;46.40;;;;;;4947160;28;20467;-46
2022/08/23 04:18:30;;;;;;;2.80;2.60;;;24.70;46.20;;;;;;4945461;28;20454;-46
2022/08/23 04:20:57;;;;;;;3.10;2.80;;;24.70;46.00;;;;;;4944312;28;20495;-46
2022/08/23 04:23:24;;;;;;;2.93;2.73;;;24.70;46.00;;;;;;4947348;28;20454;-48
2022/08/23 04:25:50;;;;;;;3.10;2.73;;;24.70;46.10;;;;;;4948297;28;20452;-46
2022/08/23 04:28:15;;;;;;;5.07;3.20;;;24.60;46.10;;;;;;4942296;28;20572;-47
2022/08/23 04:30:41;;;;;;;3.23;3.03;;;24.60;46.40;;;;;;4950623;29;20192;-48
2022/08/23 04:33:07;;;;;;;2.93;2.73;;;24.70;46.20;;;;;;4942343;28;20192;-47
2022/08/23 04:35:33;;;;;;;2.70;2.50;;;24.60;46.10;;;;;;4941563;28;20200;-48
2022/08/23 04:37:58;;;;;;;3.20;2.70;;;24.60;46.20;;;;;;4943488;28;20462;-45
2022/08/23 04:43:08;;;;;;;3.17;2.87;;;24.50;46.40;;;;;;4949330;28;20800;-45
2022/08/23 04:45:37;;;;;;;3.17;2.93;;;24.50;46.40;;;;;;4950266;29;20435;-47
2022/08/23 04:48:03;;;;;;;3.93;2.90;;;24.50;46.40;;;;;;4949579;28;20710;-48
2022/08/23 04:50:30;;;;;;;3.87;3.10;;;24.50;45.40;;;;;;4949168;28;20450;-47
2022/08/23 04:52:56;;;;;;;3.70;3.40;;;24.40;45.50;;;;;;4950286;28;20817;-45
2022/08/23 04:55:21;;;;;;;3.07;2.77;;;24.00;46.10;;;;;;4949009;28;20546;-45
2022/08/23 04:57:47;;;;;;;6.80;3.50;;;24.00;46.10;;;;;;4950141;28;20954;-46
2022/08/23 05:00:15;;;;;;;4.00;3.53;;;23.90;47.40;;;;;;4940031;28;20761;-46
2022/08/23 05:02:41;;;;;;;6.17;3.20;;;23.80;47.30;;;;;;4927388;29;20284;-44
2022/08/23 05:05:08;;;;;;;2.90;2.70;;;23.90;46.90;;;;;;4946454;28;20530;-45
2022/08/23 05:07:34;;;;;;;4.00;3.70;;;24.10;46.30;;;;;;4939088;28;20263;-46
2022/08/23 05:10:00;;;;;;;3.90;3.50;;;24.00;46.20;;;;;;4945494;28;20825;-45
2022/08/23 05:12:27;;;;;;;3.90;3.60;;;23.60;47.10;;;;;;4943858;28;20471;-45
2022/08/23 05:14:53;;;;;;;3.30;2.97;;;23.70;46.90;;;;;;4942040;28;20196;-49
2022/08/23 05:17:18;;;;;;;3.30;3.00;;;23.80;46.90;;;;;;4941863;28;20447;-46
2022/08/23 05:19:44;;;;;;;3.80;3.50;;;24.00;47.00;;;;;;4947121;28;20439;-49
2022/08/23 05:22:10;;;;;;;4.70;4.37;;;24.00;46.80;;;;;;4945663;28;20211;-46
2022/08/23 05:24:35;;;;;;;3.97;3.23;;;24.00;46.90;;;;;;4951894;29;20192;-45
2022/08/23 05:27:01;;;;;;;3.60;3.30;;;24.10;46.90;;;;;;4953640;28;20231;-46
2022/08/23 05:29:26;;;;;;;4.77;3.27;;;24.20;46.70;;;;;;4953054;28;20196;-46
2022/08/23 05:31:52;;;;;;;3.70;3.37;;;24.20;46.50;;;;;;4954429;28;20224;-47
2022/08/23 05:34:18;;;;;;;7.23;3.60;;;24.20;46.30;;;;;;4955633;29;20285;-46
2022/08/23 05:36:44;;;;;;;3.73;2.83;;;24.10;46.70;;;;;;4952462;28;20192;-45
2022/08/23 05:39:10;;;;;;;5.00;3.17;;;23.60;47.20;;;;;;4955323;28;20254;-45
2022/08/23 05:41:36;;;;;;;4.50;3.73;;;23.40;48.10;;;;;;4951269;28;20498;-49
2022/08/23 05:44:01;;;;;;;3.57;3.27;;;23.50;48.00;;;;;;4954659;28;20204;-45
2022/08/23 05:46:28;;;;;;;5.40;3.13;;;23.40;48.50;;;;;;4950387;28;20466;-45
2022/08/23 05:48:53;;;;;;;3.73;3.40;;;23.00;49.10;;;;;;4954945;29;20668;-46
2022/08/23 05:51:30;;;;;;;6.47;3.67;;;22.90;49.40;;;;;;4952362;28;20452;-49
2022/08/23 05:53:59;;;;;;;3.77;3.47;;;23.10;49.20;;;;;;4950767;28;20564;-48
2022/08/23 05:56:36;;;;;;;4.10;3.70;;;23.10;49.10;;;;;;4951433;28;20444;-47
2022/08/23 05:59:06;;;;;;;3.67;3.37;;;23.20;49.10;;;;;;4951737;28;20853;-48
2022/08/23 06:01:33;;;;;;;5.10;3.10;;;23.50;48.80;;;;;;4935563;28;20497;-46
2022/08/23 06:04:00;;;;;;;5.43;3.57;;;23.50;48.10;;;;;;4953471;28;20513;-46
2022/08/23 06:06:26;;;;;;;5.10;3.40;;;23.60;48.30;;;;;;4949718;28;20974;-45
2022/08/23 06:08:52;;;;;;;3.72;3.20;;;23.60;48.10;;;;;;4946703;28;20437;-46
2022/08/23 06:11:21;;;;;;;3.70;3.40;;;23.60;47.90;;;;;;4951209;28;20851;-46
2022/08/23 06:13:49;;;;;;;3.53;3.23;;;23.10;48.60;;;;;;4949423;28;20274;-45
2022/08/23 06:16:20;;;;;;;6.50;3.70;;;22.80;49.70;;;;;;4951370;28;21232;-47
2022/08/23 06:18:47;;;;;;;3.30;3.07;;;22.80;49.80;;;;;;4933694;28;20475;-48
2022/08/23 06:21:14;;;;;;;4.50;3.20;;;22.90;49.80;;;;;;4950708;28;20522;-47
2022/08/23 06:23:41;;;;;;;6.03;4.00;;;22.80;49.90;;;;;;4961927;28;20449;-45
2022/08/23 06:26:16;;;;;;;4.87;2.97;;;22.70;50.40;;;;;;4954663;29;20487;-45
2022/08/23 06:28:46;;;;;;;3.17;2.87;;;22.60;50.40;;;;;;4954614;29;20522;-46
2022/08/23 06:31:12;;;;;;;3.40;3.10;;;22.50;50.70;;;;;;4954551;29;20493;-47
2022/08/23 06:33:41;;;;;;;9.60;2.97;;;22.80;50.30;;;;;;4955041;29;20436;-45
2022/08/23 06:36:16;;;;;;;5.03;3.00;;;23.20;49.60;;;;;;4954875;29;20239;-47
2022/08/23 06:38:43;;;;;;;6.63;3.00;;;23.60;48.70;;;;;;4950288;28;20872;-47
2022/08/23 06:41:11;;;;;;;4.23;3.10;;;23.90;48.00;;;;;;4954373;29;20487;-45
2022/08/23 06:43:38;;;;;;;6.23;3.67;;;24.10;47.80;;;;;;4937677;29;20443;-46
2022/08/23 06:46:37;;;;;;;4.23;3.30;;;24.10;47.30;;;;;;4954459;29;20428;-46
2022/08/23 06:49:04;;;;;;;4.20;2.80;;;24.10;47.20;;;;;;4932303;29;20817;-45
2022/08/23 06:51:42;;;;;;;6.47;3.43;;;24.10;47.50;;;;;;4954707;29;20839;-47
2022/08/23 06:54:11;;;;;;;3.73;2.70;;;24.30;47.60;;;;;;4954226;29;20874;-46
2022/08/23 06:56:37;;;;;;;3.00;2.80;;;24.50;47.10;;;;;;4954226;29;20443;-45
2022/08/23 06:59:05;;;;;;;3.10;2.80;;;24.70;46.70;;;;;;4953866;29;20794;-46
2022/08/23 07:02:00;;;;;;;3.47;3.17;;;25.00;46.00;;;;;;4954525;29;20487;-45
2022/08/23 07:04:29;;;;;;;3.00;2.70;;;25.10;45.80;;;;;;4946858;29;20906;-46
2022/08/23 07:06:55;;;;;;;3.37;2.77;;;25.30;45.70;;;;;;4954080;29;20439;-45
2022/08/23 07:09:21;;;;;;;3.20;2.90;;;25.60;45.10;;;;;;4954079;29;20796;-46
2022/08/23 07:11:47;;;;;;;3.13;2.87;;;25.60;44.90;;;;;;4954716;29;20452;-46
2022/08/23 07:14:17;;;;;;;3.33;3.03;;;25.60;44.70;;;;;;4953709;28;20471;-47
2022/08/23 07:16:55;;;;;;;4.13;3.20;;;25.90;44.70;;;;;;4954069;29;20251;-45
2022/08/23 07:19:23;;;;;;;4.70;2.83;;;26.00;44.30;;;;;;4953773;29;20424;-47
2022/08/23 07:21:49;;;;;;;6.30;2.90;;;26.10;44.00;;;;;;4954311;29;20572;-46
2022/08/23 07:24:16;;;;;;;3.20;2.90;;;26.10;43.30;;;;;;4953580;29;20453;-46
2022/08/23 07:26:44;;;;;;;3.50;3.23;;;26.10;43.40;;;;;;4953847;29;20279;-45
2022/08/23 07:29:11;;;;;;;2.93;2.73;;;26.20;43.00;;;;;;4953333;29;20428;-50
2022/08/23 07:31:56;;;;;;;5.40;3.30;;;26.20;42.70;;;;;;4952731;29;20828;-46
2022/08/23 07:34:23;;;;;;;2.50;2.30;;;26.20;42.80;;;;;;4953619;29;20440;-46
2022/08/23 07:36:50;;;;;;;3.00;2.80;;;26.60;42.40;;;;;;4953958;29;20841;-47
2022/08/23 07:39:16;;;;;;;4.07;2.50;;;26.90;42.10;;;;;;4953331;29;20812;-45
2022/08/23 07:41:43;;;;;;;3.07;2.87;;;27.10;41.20;;;;;;4953801;29;20484;-50
2022/08/23 07:44:10;;;;;;;3.27;2.97;;;27.20;40.80;;;;;;4953329;29;20456;-50
2022/08/23 07:46:39;;;;;;;2.60;2.40;;;27.30;40.20;;;;;;4953399;29;20864;-46
2022/08/23 07:49:05;;;;;;;2.83;2.60;;;27.20;40.40;;;;;;4952671;28;20455;-49
2022/08/23 07:51:32;;;;;;;2.77;2.57;;;27.30;40.40;;;;;;4953631;29;20477;-50
2022/08/23 07:54:04;;;;;;;3.83;2.50;;;27.20;40.40;;;;;;4953625;29;20432;-49
2022/08/23 07:56:30;;;;;;;6.03;2.50;;;27.20;40.40;;;;;;4953435;29;20435;-48
2022/08/23 07:58:56;;;;;;;3.03;2.83;;;27.70;40.20;;;;;;4951496;29;20439;-46
2022/08/23 08:01:25;;;;;;;3.90;3.00;;;28.00;40.00;;;;;;4953099;29;20487;-46
2022/08/23 08:03:53;;;;;;;3.00;2.77;;;27.90;39.40;;;;;;4953630;29;20933;-48
2022/08/23 08:06:34;;;;;;;3.00;2.80;;;28.10;39.40;;;;;;4953135;29;20431;-47
2022/08/23 08:09:00;;;;;;;3.23;2.90;;;28.40;39.10;;;;;;4952847;29;20436;-48
2022/08/23 08:11:29;;;;;;;2.90;2.70;;;28.10;39.00;;;;;;4953356;29;20455;-48
2022/08/23 08:13:55;;;;;;;4.37;3.33;;;28.40;38.80;;;;;;4953218;28;20526;-47
2022/08/23 08:16:24;;;;;;;2.97;2.77;;;28.70;38.40;;;;;;4953204;29;20443;-48
2022/08/23 08:18:50;;;;;;;4.60;2.77;;;28.80;38.40;;;;;;4953461;29;21100;-47
2022/08/23 08:21:17;;;;;;;3.93;3.13;;;28.70;38.10;;;;;;4952496;29;20472;-49
2022/08/23 08:23:43;;;;;;;4.40;2.77;;;28.90;37.80;;;;;;4953338;29;20479;-49
2022/08/23 08:26:09;;;;;;;3.10;2.80;;;28.80;37.70;;;;;;4951056;29;20473;-47
2022/08/23 08:28:36;;;;;;;3.57;2.50;;;29.00;38.00;;;;;;4952645;29;20439;-50
2022/08/23 08:31:02;;;;;;;2.93;2.70;;;29.10;37.20;;;;;;4952586;29;20415;-45
2022/08/23 08:33:29;;;;;;;3.10;2.53;;;29.20;37.60;;;;;;4953028;29;20463;-46
2022/08/23 08:35:56;;;;;;;5.23;3.10;;;29.60;36.70;;;;;;4935053;29;20969;-46
2022/08/23 08:38:22;;;;;;;4.70;3.33;;;29.90;36.40;;;;;;4952682;29;20438;-49
2022/08/23 08:41:24;;;;;;;2.90;2.33;;;30.00;35.80;;;;;;4952598;29;20479;-46
2022/08/23 08:44:02;;;;;;;4.77;2.73;;;30.40;35.30;;;;;;4922041;29;20219;-49
2022/08/23 08:46:47;;;;;;;2.60;2.40;;;30.60;35.00;;;;;;4952928;29;20833;-46
2022/08/23 08:49:19;;;;;;;3.83;2.67;;;30.70;34.80;;;;;;4952309;29;20443;-47
2022/08/23 08:51:57;;;;;;;3.73;3.40;;;30.70;34.60;;;;;;4951017;29;20458;-45
2022/08/23 08:54:26;;;;;;;5.30;2.40;;;30.80;34.40;;;;;;4952219;29;20435;-50
2022/08/23 08:56:56;;;;;;;3.03;2.70;;;30.80;34.50;;;;;;4952002;28;20435;-46
2022/08/23 08:59:26;;;;;;;4.37;2.37;;;31.00;33.90;;;;;;4952344;29;20439;-46
2022/08/23 09:01:52;;;;;;;3.93;2.40;;;31.20;33.40;;;;;;4951935;28;20487;-49
2022/08/23 09:04:18;;;;;;;2.80;2.60;;;31.50;33.10;;;;;;4952095;29;20814;-50
2022/08/23 09:06:53;;;;;;;2.77;2.43;;;31.60;32.70;;;;;;4952107;29;20224;-47
2022/08/23 09:09:44;;;;;;;3.00;2.67;;;31.60;32.70;;;;;;4952266;29;20557;-50
2022/08/23 09:12:31;;;;;;;2.80;2.60;;;31.80;32.00;;;;;;4952438;29;20446;-50
2022/08/23 09:15:02;;;;;;;3.47;2.40;;;31.90;32.60;;;;;;4952067;28;20443;-48
2022/08/23 09:17:43;;;;;;;2.90;2.53;;;32.00;31.70;;;;;;4952258;29;20439;-48
2022/08/23 09:20:10;;;;;;;2.83;2.40;;;32.20;32.10;;;;;;4950375;29;20467;-49
2022/08/23 09:22:44;;;;;;;3.17;2.30;;;32.50;29.80;;;;;;4952265;29;20454;-49
2022/08/23 09:25:12;;;;;;;2.90;2.30;;;32.60;29.50;;;;;;4951785;29;20983;-50
2022/08/23 09:27:40;;;;;;;4.60;2.37;;;32.60;30.00;;;;;;4952033;29;20471;-47
2022/08/23 09:30:07;;;;;;;3.57;2.87;;;32.70;29.80;;;;;;4951564;29;20571;-46
2022/08/23 09:32:41;;;;;;;2.50;2.30;;;32.90;29.70;;;;;;4952332;29;20447;-51
2022/08/23 09:35:21;;;;;;;2.40;2.20;;;33.10;29.30;;;;;;4951717;29;20444;-49
2022/08/23 09:37:58;;;;;;;3.60;2.03;;;33.20;29.10;;;;;;4951834;29;20792;-46
2022/08/23 09:40:43;;;;;;;2.20;2.00;;;33.30;27.90;;;;;;4951567;29;20862;-46
2022/08/23 09:43:14;;;;;;;2.63;2.43;;;33.50;27.50;;;;;;4952230;29;20451;-47
2022/08/23 09:45:49;;;;;;;3.30;2.10;;;33.50;27.40;;;;;;4950124;29;20435;-46
2022/08/23 09:48:33;;;;;;;3.00;2.80;;;33.80;27.20;;;;;;4951612;29;20443;-48
2022/08/23 09:51:16;;;;;;;3.50;2.30;;;34.00;26.90;;;;;;4951814;29;20432;-46
2022/08/23 09:53:49;;;;;;;2.83;2.63;;;34.10;27.00;;;;;;4952235;29;20423;-47
2022/08/23 09:56:24;;;;;;;2.63;2.43;;;34.10;26.00;;;;;;4951350;29;20823;-50
2022/08/23 09:58:52;;;;;;;2.67;2.23;;;34.20;26.20;;;;;;4952375;29;20438;-47
2022/08/23 10:01:18;;;;;;;2.80;2.17;;;34.20;26.10;;;;;;4951397;29;20486;-47
2022/08/23 10:03:45;;;;;;;2.40;2.17;;;34.30;26.00;;;;;;4952151;29;20564;-46
2022/08/23 10:06:15;;;;;;;2.23;2.03;;;34.30;25.90;;;;;;4951371;29;20319;-46
2022/08/23 10:08:57;;;;;;;2.50;2.30;;;34.50;25.60;;;;;;4952100;29;20431;-46
2022/08/23 10:11:28;;;;;;;3.77;2.50;;;34.70;25.50;;;;;;4952142;29;20463;-46
2022/08/23 10:13:54;;;;;;;3.90;2.50;;;34.70;25.20;;;;;;4953361;28;20555;-46
2022/08/23 10:16:57;;;;;;;4.00;2.30;;;34.80;24.30;;;;;;4954830;29;20927;-49
2022/08/23 10:19:58;;;;;;;3.90;2.17;;;35.00;24.50;;;;;;4954608;29;20998;-46
2022/08/23 10:22:27;;;;;;;4.83;2.60;;;35.10;24.60;;;;;;4955401;29;20443;-46
2022/08/23 10:25:20;;;;;;;2.50;1.93;;;35.30;24.00;;;;;;4954975;29;20426;-50
2022/08/23 10:30:52;;;;;;;4.20;2.60;;;35.50;24.20;;;;;;4954576;29;20443;-48
2022/08/23 10:33:41;;;;;;;2.30;2.20;;;35.10;24.70;;;;;;4955390;29;20999;-46
2022/08/23 10:36:23;;;;;;;3.43;2.63;;;35.10;24.60;;;;;;4954754;29;20196;-47
2022/08/23 10:38:57;;;;;;;3.00;2.40;;;35.10;24.70;;;;;;4954188;29;21077;-47
2022/08/23 10:41:51;;;;;;;3.83;2.30;;;35.30;24.90;;;;;;4954744;29;20573;-46
2022/08/23 10:44:42;;;;;;;3.87;2.53;;;35.30;24.90;;;;;;4954646;29;20439;-50
2022/08/23 10:47:40;;;;;;;2.43;2.23;;;35.60;24.70;;;;;;4954463;29;20439;-47
2022/08/23 10:50:11;;;;;;;3.77;2.50;;;35.90;24.90;;;;;;4954462;29;20470;-47
2022/08/23 10:53:01;;;;;;;2.70;2.50;;;36.10;24.60;;;;;;4954888;29;20431;-46
2022/08/23 10:56:17;;;;;;;2.90;2.60;;;36.40;24.10;;;;;;4954053;29;20463;-46
2022/08/23 10:58:24;;;;;;;3.47;2.90;;;36.50;24.40;;;;;;4943771;29;20816;-51
2022/08/23 11:00:53;;;;;;;3.53;2.50;;;36.50;23.60;;;;;;4954234;29;20497;-47
2022/08/23 11:03:32;;;;;;;2.67;2.47;;;35.90;24.60;;;;;;4954573;29;20442;-47
2022/08/23 11:06:25;;;;;;;3.57;2.57;;;35.80;24.70;;;;;;4952116;29;20939;-47
2022/08/23 11:09:27;;;;;;;2.57;2.40;;;36.00;24.60;;;;;;4945048;29;20439;-47
2022/08/23 11:12:01;;;;;;;2.83;2.50;;;36.30;24.20;;;;;;4954673;29;20446;-47
2022/08/23 11:14:30;;;;;;;3.20;2.63;;;36.70;24.40;;;;;;4953546;28;20469;-49
2022/08/23 11:17:03;;;;;;;3.50;3.20;;;37.10;24.30;;;;;;4954068;29;20439;-48
2022/08/23 11:19:55;;;;;;;2.83;2.63;;;37.30;23.50;;;;;;4954091;29;20511;-48
2022/08/23 11:22:21;;;;;;;5.10;2.80;;;37.30;23.80;;;;;;4954382;29;20450;-51
2022/08/23 11:24:54;;;;;;;2.97;2.67;;;37.50;23.20;;;;;;4953020;28;20915;-47
2022/08/23 11:27:27;;;;;;;2.63;2.40;;;37.60;23.30;;;;;;4953871;29;20543;-51
2022/08/23 11:29:52;;;;;;;3.70;2.93;;;37.70;23.10;;;;;;4953648;29;20451;-50
2022/08/23 11:32:32;;;;;;;2.60;2.40;;;37.80;23.00;;;;;;4952992;28;20798;-48
2022/08/23 11:35:07;;;;;;;2.80;2.33;;;38.10;22.70;;;;;;4952444;29;20195;-47
2022/08/23 11:37:50;;;;;;;2.77;2.57;;;38.20;22.60;;;;;;4953713;29;20423;-47
2022/08/23 11:40:37;;;;;;;2.77;2.57;;;37.40;23.00;;;;;;4953642;29;20478;-46
2022/08/23 11:43:11;;;;;;;2.80;2.60;;;37.40;23.20;;;;;;4953616;29;20442;-47
2022/08/23 11:45:45;;;;;;;3.40;2.50;;;37.60;23.00;;;;;;4953500;29;20933;-48
2022/08/23 11:48:32;;;;;;;3.93;2.30;;;37.80;22.50;;;;;;4953667;29;21324;-48
2022/08/23 11:51:26;;;;;;;4.23;2.70;;;38.20;22.50;;;;;;4943007;29;20454;-50
2022/08/23 11:54:13;;;;;;;3.47;3.17;;;38.50;22.70;;;;;;4953508;29;20433;-48
2022/08/23 11:57:02;;;;;;;4.83;2.80;;;38.70;22.30;;;;;;4952090;28;20875;-47
2022/08/23 12:00:04;;;;;;;2.33;2.20;;;38.70;22.00;;;;;;4952597;29;20506;-49
2022/08/23 12:03:02;;;;;;;3.07;2.87;;;38.90;21.80;;;;;;4953686;29;20959;-47
2022/08/23 12:05:37;;;;;;;3.53;2.60;;;38.40;21.80;;;;;;4952807;29;20499;-47
2022/08/23 12:08:02;;;;;;;3.20;2.80;;;38.40;21.90;;;;;;4953016;29;20442;-48
2022/08/23 12:10:40;;;;;;;2.73;2.53;;;38.10;22.00;;;;;;4952929;29;20443;-48
2022/08/23 12:13:21;;;;;;;2.60;2.40;;;37.80;22.40;;;;;;4953300;29;20238;-46
2022/08/23 12:16:14;;;;;;;2.40;2.20;;;37.50;22.40;;;;;;4952625;28;20449;-47
2022/08/23 12:18:50;;;;;;;2.80;2.60;;;37.50;22.50;;;;;;4953320;29;20455;-47
2022/08/23 12:21:44;;;;;;;2.30;2.20;;;37.70;23.00;;;;;;4952557;29;20486;-51
2022/08/23 12:24:29;;;;;;;2.77;2.57;;;37.70;22.30;;;;;;4944534;29;20893;-48
2022/08/23 12:27:22;;;;;;;2.40;2.20;;;38.00;22.20;;;;;;4951223;29;20435;-46
2022/08/23 12:30:02;;;;;;;2.80;2.60;;;37.90;22.20;;;;;;4952535;29;20455;-46
2022/08/23 12:32:52;;;;;;;2.80;2.50;;;38.00;22.30;;;;;;4952990;29;20427;-47
2022/08/23 12:35:42;;;;;;;3.83;2.80;;;38.00;22.10;;;;;;4952111;28;20462;-49
2022/08/23 12:38:08;;;;;;;3.60;2.87;;;38.00;22.20;;;;;;4952783;29;20438;-47
2022/08/23 12:40:42;;;;;;;2.43;2.30;;;38.20;22.10;;;;;;4952417;29;20559;-49
2022/08/23 12:43:22;;;;;;;3.07;2.80;;;38.30;21.50;;;;;;4952993;29;20578;-47
2022/08/23 12:45:52;;;;;;;3.03;2.73;;;38.40;21.60;;;;;;4952351;29;20458;-47
2022/08/23 12:48:21;;;;;;;3.10;2.90;;;38.40;21.30;;;;;;4952666;29;20439;-46
2022/08/23 12:51:09;;;;;;;3.07;2.60;;;38.40;21.60;;;;;;4952472;29;20439;-49
2022/08/23 12:53:41;;;;;;;2.63;2.43;;;38.40;21.50;;;;;;4951381;29;20427;-49
2022/08/23 12:56:28;;;;;;;2.80;2.33;;;38.50;21.60;;;;;;4951677;29;20578;-48
2022/08/23 12:58:58;;;;;;;3.17;2.67;;;38.20;21.70;;;;;;4952410;29;20806;-49
2022/08/23 13:01:32;;;;;;;2.70;2.50;;;38.30;22.00;;;;;;4952530;29;20490;-47
2022/08/23 13:04:08;;;;;;;3.47;2.60;;;38.20;21.80;;;;;;4952125;29;20577;-48
2022/08/23 13:06:42;;;;;;;5.10;2.73;;;38.30;21.90;;;;;;4952163;29;20437;-49
2022/08/23 13:09:21;;;;;;;2.87;2.60;;;38.60;21.50;;;;;;4952030;29;20907;-48
2022/08/23 13:11:48;;;;;;;4.20;2.90;;;38.70;21.60;;;;;;4953104;29;20423;-46
2022/08/23 13:14:43;;;;;;;2.63;2.43;;;38.80;21.60;;;;;;4951482;28;20577;-47
2022/08/23 13:17:24;;;;;;;2.70;2.60;;;39.00;21.80;;;;;;4952222;29;20442;-48
2022/08/23 13:20:12;;;;;;;2.73;2.53;;;39.20;21.60;;;;;;4952310;29;20836;-47
2022/08/23 13:22:53;;;;;;;4.93;2.90;;;39.20;21.00;;;;;;4951077;29;20514;-47